createdAt,value
2022-10-13T00:00:00.095Z,4.09
2022-10-13T00:00:10.590Z,4.12
2022-10-13T00:00:21.140Z,4.11
2022-10-13T00:00:31.612Z,4.09
2022-10-13T00:00:42.204Z,4.08
2022-10-13T00:00:52.643Z,4.09
2022-10-13T00:01:03.175Z,4.08
2022-10-13T00:01:13.684Z,4.08
2022-10-13T00:01:24.187Z,4.06
2022-10-13T00:01:34.642Z,4.06
2022-10-13T00:01:45.146Z,4.06
2022-10-13T00:01:55.647Z,4.06
2022-10-13T00:02:06.153Z,4.06
2022-10-13T00:02:17.066Z,4.06
2022-10-13T00:02:27.163Z,4.05
2022-10-13T00:02:37.664Z,4.05
2022-10-13T00:02:48.171Z,4.05
2022-10-13T00:02:58.674Z,4.05
2022-10-13T00:03:09.189Z,4.04
2022-10-13T00:03:19.687Z,4.04
2022-10-13T00:03:30.188Z,4.02
2022-10-13T00:03:40.694Z,4.02
2022-10-13T00:03:51.239Z,4.00
2022-10-13T00:04:01.711Z,4.04
2022-10-13T00:04:12.215Z,4.00
2022-10-13T00:04:22.725Z,4.00
2022-10-13T00:04:33.226Z,4.00
2022-10-13T00:04:43.728Z,3.98
2022-10-13T00:04:54.239Z,3.97
2022-10-13T00:05:04.741Z,3.97
2022-10-13T00:05:15.283Z,3.96
2022-10-13T00:05:25.763Z,3.96
2022-10-13T00:05:36.287Z,3.96
2022-10-13T00:05:46.765Z,3.94
2022-10-13T00:05:57.270Z,3.96
2022-10-13T00:06:07.771Z,3.93
2022-10-13T00:06:18.282Z,3.93
2022-10-13T00:06:28.788Z,3.93
2022-10-13T00:06:39.315Z,3.93
2022-10-13T00:06:49.802Z,3.93
2022-10-13T00:07:00.300Z,3.96
2022-10-13T00:07:10.801Z,3.93
2022-10-13T00:07:21.320Z,3.93
2022-10-13T00:07:31.807Z,3.94
2022-10-13T00:07:42.312Z,3.94
2022-10-13T00:07:52.815Z,3.96
2022-10-13T00:08:03.325Z,3.94
2022-10-13T00:08:13.821Z,3.94
2022-10-13T00:08:24.326Z,3.94
2022-10-13T00:08:34.826Z,3.93
2022-10-13T00:08:45.366Z,3.94
2022-10-13T00:08:55.850Z,3.94
2022-10-13T00:09:06.367Z,3.93
2022-10-13T00:09:16.848Z,3.93
2022-10-13T00:09:27.354Z,3.91
2022-10-13T00:09:37.855Z,3.93
2022-10-13T00:09:48.362Z,3.91
2022-10-13T00:09:58.868Z,3.90
2022-10-13T00:10:09.373Z,3.90
2022-10-13T00:10:19.944Z,3.88
2022-10-13T00:10:30.413Z,3.88
2022-10-13T00:10:40.882Z,3.88
2022-10-13T00:10:51.389Z,3.88
2022-10-13T00:11:01.923Z,3.88
2022-10-13T00:11:12.400Z,3.87
2022-10-13T00:11:22.896Z,3.87
2022-10-13T00:11:33.426Z,3.87
2022-10-13T00:11:43.907Z,3.87
2022-10-13T00:11:54.418Z,3.87
2022-10-13T00:12:04.920Z,3.87
2022-10-13T00:12:15.697Z,3.87
2022-10-13T00:12:25.925Z,3.88
2022-10-13T00:12:36.459Z,3.88
2022-10-13T00:12:46.951Z,3.88
2022-10-13T00:12:57.443Z,3.88
2022-10-13T00:13:07.955Z,3.88
2022-10-13T00:13:18.463Z,3.90
2022-10-13T00:13:28.984Z,3.87
2022-10-13T00:13:39.475Z,3.88
2022-10-13T00:13:49.983Z,3.87
2022-10-13T00:14:00.492Z,3.86
2022-10-13T00:14:10.996Z,3.87
2022-10-13T00:14:21.491Z,3.84
2022-10-13T00:14:31.993Z,3.86
2022-10-13T00:14:42.498Z,3.86
2022-10-13T00:14:53.002Z,3.86
2022-10-13T00:15:03.500Z,3.86
2022-10-13T00:15:14.013Z,3.87
2022-10-13T00:15:24.510Z,3.87
2022-10-13T00:15:35.013Z,3.88
2022-10-13T00:15:45.523Z,3.88
2022-10-13T00:15:56.023Z,3.88
2022-10-13T00:16:06.532Z,3.90
2022-10-13T00:16:17.031Z,3.90
2022-10-13T00:16:27.572Z,3.91
2022-10-13T00:16:38.039Z,3.93
2022-10-13T00:16:48.591Z,3.90
2022-10-13T00:16:59.051Z,3.94
2022-10-13T00:17:09.557Z,3.93
2022-10-13T00:17:20.057Z,3.94
2022-10-13T00:17:30.569Z,3.93
2022-10-13T00:17:41.062Z,3.93
2022-10-13T00:17:51.567Z,3.93
2022-10-13T00:18:02.071Z,3.91
2022-10-13T00:18:12.575Z,3.94
2022-10-13T00:18:23.082Z,3.91
2022-10-13T00:18:33.585Z,3.93
2022-10-13T00:18:44.094Z,3.93
2022-10-13T00:18:54.587Z,3.93
2022-10-13T00:19:05.095Z,3.91
2022-10-13T00:19:15.603Z,3.94
2022-10-13T00:19:26.108Z,3.94
2022-10-13T00:19:36.622Z,3.96
2022-10-13T00:19:47.111Z,3.96
2022-10-13T00:19:57.613Z,3.94
2022-10-13T00:20:08.131Z,3.97
2022-10-13T00:20:18.621Z,3.98
2022-10-13T00:20:29.159Z,3.97
2022-10-13T00:20:39.635Z,3.98
2022-10-13T00:20:50.134Z,3.98
2022-10-13T00:21:00.640Z,3.98
2022-10-13T00:21:11.153Z,4.00
2022-10-13T00:21:21.646Z,4.00
2022-10-13T00:21:32.153Z,3.97
2022-10-13T00:21:42.656Z,3.98
2022-10-13T00:21:53.159Z,3.97
2022-10-13T00:22:03.700Z,3.97
2022-10-13T00:22:14.181Z,3.98
2022-10-13T00:22:24.679Z,3.97
2022-10-13T00:22:35.182Z,3.97
2022-10-13T00:22:45.694Z,3.96
2022-10-13T00:22:56.192Z,3.94
2022-10-13T00:23:06.713Z,3.94
2022-10-13T00:23:17.197Z,3.94
2022-10-13T00:23:27.716Z,3.96
2022-10-13T00:23:38.204Z,3.96
2022-10-13T00:23:48.713Z,3.96
2022-10-13T00:23:59.214Z,3.94
2022-10-13T00:24:09.744Z,3.93
2022-10-13T00:24:20.231Z,3.94
2022-10-13T00:24:30.739Z,3.94
2022-10-13T00:24:41.237Z,3.93
2022-10-13T00:24:51.742Z,3.93
2022-10-13T00:25:02.747Z,3.91
2022-10-13T00:25:13.248Z,3.90
2022-10-13T00:25:23.753Z,3.91
2022-10-13T00:25:34.259Z,3.91
2022-10-13T00:25:44.770Z,3.90
2022-10-13T00:25:55.270Z,3.91
2022-10-13T00:26:05.773Z,3.91
2022-10-13T00:26:16.282Z,3.90
2022-10-13T00:26:26.784Z,3.87
2022-10-13T00:26:37.279Z,3.88
2022-10-13T00:26:47.793Z,3.88
2022-10-13T00:26:58.293Z,3.88
2022-10-13T00:27:08.826Z,3.87
2022-10-13T00:27:19.291Z,3.88
2022-10-13T00:27:29.808Z,3.90
2022-10-13T00:27:40.307Z,3.88
2022-10-13T00:27:50.822Z,3.87
2022-10-13T00:28:01.308Z,3.88
2022-10-13T00:28:11.853Z,3.87
2022-10-13T00:28:22.365Z,3.87
2022-10-13T00:28:32.862Z,3.87
2022-10-13T00:28:44.207Z,3.84
2022-10-13T00:28:53.909Z,3.86
2022-10-13T00:29:04.401Z,3.84
2022-10-13T00:29:14.843Z,3.86
2022-10-13T00:29:25.352Z,3.86
2022-10-13T00:29:35.849Z,3.84
2022-10-13T00:29:46.351Z,3.80
2022-10-13T00:29:56.866Z,3.83
2022-10-13T00:30:07.364Z,3.83
2022-10-13T00:30:17.869Z,3.84
2022-10-13T00:30:28.364Z,3.84
2022-10-13T00:30:38.873Z,3.87
2022-10-13T00:30:49.375Z,3.87
2022-10-13T00:30:59.888Z,3.87
2022-10-13T00:31:10.382Z,3.87
2022-10-13T00:31:20.887Z,3.90
2022-10-13T00:31:31.392Z,3.87
2022-10-13T00:31:41.893Z,3.88
2022-10-13T00:31:52.401Z,3.90
2022-10-13T00:32:02.902Z,3.91
2022-10-13T00:32:13.428Z,3.93
2022-10-13T00:32:23.911Z,3.93
2022-10-13T00:32:34.412Z,3.93
2022-10-13T00:32:44.926Z,3.94
2022-10-13T00:32:55.431Z,3.96
2022-10-13T00:33:05.928Z,3.96
2022-10-13T00:33:16.441Z,3.96
2022-10-13T00:33:26.947Z,3.96
2022-10-13T00:33:37.442Z,3.94
2022-10-13T00:33:47.979Z,3.97
2022-10-13T00:33:58.457Z,3.97
2022-10-13T00:34:08.963Z,3.96
2022-10-13T00:34:19.471Z,3.96
2022-10-13T00:34:29.981Z,3.96
2022-10-13T00:34:40.475Z,3.97
2022-10-13T00:34:50.977Z,3.97
2022-10-13T00:35:01.479Z,3.97
2022-10-13T00:35:11.987Z,3.97
2022-10-13T00:35:22.502Z,3.96
2022-10-13T00:35:33.015Z,3.97
2022-10-13T00:35:43.505Z,3.97
2022-10-13T00:35:54.008Z,4.00
2022-10-13T00:36:04.511Z,3.98
2022-10-13T00:36:15.016Z,3.98
2022-10-13T00:36:25.510Z,3.98
2022-10-13T00:36:36.034Z,4.00
2022-10-13T00:36:46.528Z,3.98
2022-10-13T00:36:57.032Z,3.98
2022-10-13T00:37:07.530Z,3.98
2022-10-13T00:37:18.039Z,3.97
2022-10-13T00:37:28.539Z,3.97
2022-10-13T00:37:39.047Z,3.96
2022-10-13T00:37:49.553Z,3.97
2022-10-13T00:38:00.091Z,3.96
2022-10-13T00:38:10.568Z,3.94
2022-10-13T00:38:21.071Z,3.94
2022-10-13T00:38:31.578Z,3.94
2022-10-13T00:38:42.082Z,3.94
2022-10-13T00:38:52.581Z,3.91
2022-10-13T00:39:03.088Z,3.91
2022-10-13T00:39:13.612Z,3.91
2022-10-13T00:39:24.101Z,3.91
2022-10-13T00:39:34.595Z,3.90
2022-10-13T00:39:45.104Z,3.90
2022-10-13T00:39:55.605Z,3.88
2022-10-13T00:40:06.114Z,3.88
2022-10-13T00:40:16.614Z,3.90
2022-10-13T00:40:27.130Z,3.87
2022-10-13T00:40:37.619Z,3.87
2022-10-13T00:40:48.152Z,3.87
2022-10-13T00:40:58.632Z,3.86
2022-10-13T00:41:09.143Z,3.87
2022-10-13T00:41:19.641Z,3.86
2022-10-13T00:41:30.153Z,3.84
2022-10-13T00:41:40.658Z,3.84
2022-10-13T00:41:51.171Z,3.86
2022-10-13T00:42:01.672Z,3.84
2022-10-13T00:42:12.192Z,3.84
2022-10-13T00:42:22.688Z,3.83
2022-10-13T00:42:33.195Z,3.86
2022-10-13T00:42:43.695Z,3.86
2022-10-13T00:42:54.209Z,3.86
2022-10-13T00:43:04.738Z,3.83
2022-10-13T00:43:15.215Z,3.86
2022-10-13T00:43:25.716Z,3.86
2022-10-13T00:43:36.225Z,3.87
2022-10-13T00:43:46.726Z,3.87
2022-10-13T00:43:57.245Z,3.87
2022-10-13T00:44:07.765Z,3.86
2022-10-13T00:44:18.255Z,3.86
2022-10-13T00:44:28.763Z,3.87
2022-10-13T00:44:39.262Z,3.86
2022-10-13T00:44:49.761Z,3.84
2022-10-13T00:45:00.273Z,3.87
2022-10-13T00:45:10.782Z,3.86
2022-10-13T00:45:21.290Z,3.84
2022-10-13T00:45:31.787Z,3.84
2022-10-13T00:45:42.299Z,3.86
2022-10-13T00:45:52.806Z,3.84
2022-10-13T00:46:03.340Z,3.84
2022-10-13T00:46:13.808Z,3.84
2022-10-13T00:46:24.321Z,3.86
2022-10-13T00:46:34.822Z,3.86
2022-10-13T00:46:45.331Z,3.84
2022-10-13T00:46:55.834Z,3.84
2022-10-13T00:47:06.336Z,3.86
2022-10-13T00:47:16.838Z,3.86
2022-10-13T00:47:27.348Z,3.86
2022-10-13T00:47:37.859Z,3.86
2022-10-13T00:47:48.364Z,3.84
2022-10-13T00:47:58.862Z,3.86
2022-10-13T00:48:09.372Z,3.86
2022-10-13T00:48:19.861Z,3.84
2022-10-13T00:48:30.373Z,3.84
2022-10-13T00:48:40.880Z,3.86
2022-10-13T00:48:51.377Z,3.84
2022-10-13T00:49:01.877Z,3.83
2022-10-13T00:49:12.386Z,3.86
2022-10-13T00:49:22.887Z,3.84
2022-10-13T00:49:33.392Z,3.84
2022-10-13T00:49:44.399Z,3.84
2022-10-13T00:49:54.906Z,3.83
2022-10-13T00:50:05.440Z,3.83
2022-10-13T00:50:15.913Z,3.83
2022-10-13T00:50:26.414Z,3.83
2022-10-13T00:50:36.924Z,3.86
2022-10-13T00:50:47.434Z,3.83
2022-10-13T00:50:57.933Z,3.84
2022-10-13T00:51:08.441Z,3.84
2022-10-13T00:51:18.935Z,3.86
2022-10-13T00:51:29.445Z,3.84
2022-10-13T00:51:39.951Z,3.84
2022-10-13T00:51:50.451Z,3.84
2022-10-13T00:52:00.957Z,3.84
2022-10-13T00:52:11.462Z,3.86
2022-10-13T00:52:21.969Z,3.84
2022-10-13T00:52:32.470Z,3.87
2022-10-13T00:52:42.977Z,3.87
2022-10-13T00:52:53.481Z,3.86
2022-10-13T00:53:03.988Z,3.86
2022-10-13T00:53:14.502Z,3.86
2022-10-13T00:53:25.000Z,3.87
2022-10-13T00:53:35.506Z,3.87
2022-10-13T00:53:46.007Z,3.86
2022-10-13T00:53:56.508Z,3.87
2022-10-13T00:54:07.013Z,3.87
2022-10-13T00:54:17.568Z,3.87
2022-10-13T00:54:28.020Z,3.87
2022-10-13T00:54:38.529Z,3.84
2022-10-13T00:54:49.028Z,3.86
2022-10-13T00:54:59.532Z,3.86
2022-10-13T00:55:10.045Z,3.87
2022-10-13T00:55:20.542Z,3.86
2022-10-13T00:55:31.038Z,3.83
2022-10-13T00:55:41.545Z,3.84
2022-10-13T00:55:52.048Z,3.83
2022-10-13T00:56:02.570Z,3.83
2022-10-13T00:56:13.054Z,3.83
2022-10-13T00:56:23.560Z,3.83
2022-10-13T00:56:34.060Z,3.83
2022-10-13T00:56:44.565Z,3.80
2022-10-13T00:56:55.066Z,3.80
2022-10-13T00:57:05.579Z,3.80
2022-10-13T00:57:16.084Z,3.79
2022-10-13T00:57:26.582Z,3.79
2022-10-13T00:57:37.086Z,3.79
2022-10-13T00:57:47.589Z,3.78
2022-10-13T00:58:02.684Z,3.78
2022-10-13T00:58:09.622Z,3.76
2022-10-13T00:58:19.103Z,3.76
2022-10-13T00:58:29.606Z,3.76
2022-10-13T00:58:40.102Z,3.75
2022-10-13T00:58:50.613Z,3.73
2022-10-13T00:59:01.109Z,3.73
2022-10-13T00:59:11.615Z,3.75
2022-10-13T00:59:22.113Z,3.73
2022-10-13T00:59:32.633Z,3.72
2022-10-13T00:59:43.125Z,3.73
2022-10-13T00:59:53.628Z,3.73
2022-10-13T01:00:04.133Z,3.75
2022-10-13T01:00:14.639Z,3.75
2022-10-13T01:00:25.146Z,3.75
2022-10-13T01:00:35.766Z,3.73
2022-10-13T01:00:46.192Z,3.76
2022-10-13T01:00:56.716Z,3.75
2022-10-13T01:01:07.240Z,3.75
2022-10-13T01:01:17.748Z,3.76
2022-10-13T01:01:28.171Z,3.76
2022-10-13T01:01:38.680Z,3.75
2022-10-13T01:01:49.181Z,3.78
2022-10-13T01:01:59.692Z,3.78
2022-10-13T01:02:10.188Z,3.79
2022-10-13T01:02:21.535Z,3.76
2022-10-13T01:02:31.714Z,3.78
2022-10-13T01:02:42.197Z,3.78
2022-10-13T01:02:52.704Z,3.79
2022-10-13T01:03:03.206Z,3.78
2022-10-13T01:03:13.723Z,3.79
2022-10-13T01:03:24.221Z,3.78
2022-10-13T01:03:34.722Z,3.76
2022-10-13T01:03:45.227Z,3.75
2022-10-13T01:03:55.726Z,3.76
2022-10-13T01:04:06.229Z,3.76
2022-10-13T01:04:16.734Z,3.76
2022-10-13T01:04:27.239Z,3.76
2022-10-13T01:04:37.742Z,3.76
2022-10-13T01:04:48.251Z,3.75
2022-10-13T01:04:58.746Z,3.75
2022-10-13T01:05:09.250Z,3.78
2022-10-13T01:05:19.761Z,3.75
2022-10-13T01:05:30.258Z,3.75
2022-10-13T01:05:40.767Z,3.73
2022-10-13T01:05:51.275Z,3.75
2022-10-13T01:06:01.773Z,3.73
2022-10-13T01:06:12.303Z,3.72
2022-10-13T01:06:23.969Z,3.70
2022-10-13T01:06:33.282Z,3.70
2022-10-13T01:06:43.795Z,3.72
2022-10-13T01:06:54.283Z,3.70
2022-10-13T01:07:04.789Z,3.69
2022-10-13T01:07:15.302Z,3.70
2022-10-13T01:07:25.799Z,3.69
2022-10-13T01:07:36.301Z,3.69
2022-10-13T01:07:46.807Z,3.69
2022-10-13T01:07:57.312Z,3.66
2022-10-13T01:08:07.807Z,3.69
2022-10-13T01:08:18.321Z,3.69
2022-10-13T01:08:28.828Z,3.66
2022-10-13T01:08:39.316Z,3.68
2022-10-13T01:08:49.823Z,3.66
2022-10-13T01:09:00.323Z,3.66
2022-10-13T01:09:10.832Z,3.65
2022-10-13T01:09:21.342Z,3.65
2022-10-13T01:09:31.833Z,3.65
2022-10-13T01:09:42.359Z,3.65
2022-10-13T01:09:52.845Z,3.65
2022-10-13T01:10:03.336Z,3.62
2022-10-13T01:10:13.878Z,3.66
2022-10-13T01:10:24.342Z,3.62
2022-10-13T01:10:34.843Z,3.65
2022-10-13T01:10:45.349Z,3.65
2022-10-13T01:10:55.850Z,3.65
2022-10-13T01:11:06.354Z,3.65
2022-10-13T01:11:16.861Z,3.62
2022-10-13T01:11:27.369Z,3.62
2022-10-13T01:11:37.871Z,3.62
2022-10-13T01:11:48.371Z,3.62
2022-10-13T01:11:58.878Z,3.62
2022-10-13T01:12:09.389Z,3.62
2022-10-13T01:12:20.362Z,3.62
2022-10-13T01:12:30.391Z,3.65
2022-10-13T01:12:40.883Z,3.61
2022-10-13T01:12:51.390Z,3.62
2022-10-13T01:13:01.898Z,3.60
2022-10-13T01:13:12.392Z,3.61
2022-10-13T01:13:22.927Z,3.61
2022-10-13T01:13:33.401Z,3.61
2022-10-13T01:13:43.911Z,3.61
2022-10-13T01:13:54.409Z,3.60
2022-10-13T01:14:04.912Z,3.60
2022-10-13T01:14:15.419Z,3.60
2022-10-13T01:14:25.920Z,3.58
2022-10-13T01:14:36.429Z,3.61
2022-10-13T01:14:46.928Z,3.60
2022-10-13T01:14:57.432Z,3.61
2022-10-13T01:15:07.948Z,3.60
2022-10-13T01:15:18.440Z,3.58
2022-10-13T01:15:28.962Z,3.58
2022-10-13T01:15:39.445Z,3.58
2022-10-13T01:15:49.951Z,3.57
2022-10-13T01:16:00.455Z,3.58
2022-10-13T01:16:11.461Z,3.57
2022-10-13T01:16:21.957Z,3.58
2022-10-13T01:16:32.464Z,3.60
2022-10-13T01:16:42.967Z,3.57
2022-10-13T01:16:53.474Z,3.57
2022-10-13T01:17:03.971Z,3.55
2022-10-13T01:17:14.472Z,3.55
2022-10-13T01:17:24.976Z,3.55
2022-10-13T01:17:35.471Z,3.55
2022-10-13T01:17:45.979Z,3.54
2022-10-13T01:17:56.485Z,3.54
2022-10-13T01:18:06.995Z,3.55
2022-10-13T01:18:17.500Z,3.54
2022-10-13T01:18:28.046Z,3.54
2022-10-13T01:18:38.501Z,3.52
2022-10-13T01:18:49.005Z,3.54
2022-10-13T01:18:59.509Z,3.54
2022-10-13T01:19:10.014Z,3.54
2022-10-13T01:19:20.515Z,3.52
2022-10-13T01:19:31.027Z,3.52
2022-10-13T01:19:41.524Z,3.52
2022-10-13T01:19:52.036Z,3.52
2022-10-13T01:20:02.536Z,3.52
2022-10-13T01:20:13.038Z,3.51
2022-10-13T01:20:23.533Z,3.51
2022-10-13T01:20:34.041Z,3.51
2022-10-13T01:20:44.542Z,3.51
2022-10-13T01:20:55.050Z,3.52
2022-10-13T01:21:05.552Z,3.51
2022-10-13T01:21:16.064Z,3.52
2022-10-13T01:21:26.563Z,3.52
2022-10-13T01:21:37.070Z,3.54
2022-10-13T01:21:47.567Z,3.51
2022-10-13T01:21:58.101Z,3.51
2022-10-13T01:22:08.575Z,3.51
2022-10-13T01:22:19.519Z,3.52
2022-10-13T01:22:29.583Z,3.52
2022-10-13T01:22:40.086Z,3.54
2022-10-13T01:22:51.091Z,3.54
2022-10-13T01:23:01.589Z,3.54
2022-10-13T01:23:12.095Z,3.55
2022-10-13T01:23:22.599Z,3.57
2022-10-13T01:23:33.098Z,3.55
2022-10-13T01:23:44.106Z,3.57
2022-10-13T01:23:54.599Z,3.57
2022-10-13T01:24:05.109Z,3.54
2022-10-13T01:24:15.608Z,3.55
2022-10-13T01:24:26.127Z,3.57
2022-10-13T01:24:36.628Z,3.55
2022-10-13T01:24:47.621Z,3.54
2022-10-13T01:24:58.123Z,3.54
2022-10-13T01:25:08.619Z,3.57
2022-10-13T01:25:19.122Z,3.55
2022-10-13T01:25:29.633Z,3.55
2022-10-13T01:25:40.134Z,3.54
2022-10-13T01:25:50.635Z,3.55
2022-10-13T01:26:01.136Z,3.55
2022-10-13T01:26:11.644Z,3.54
2022-10-13T01:26:22.139Z,3.57
2022-10-13T01:26:32.640Z,3.55
2022-10-13T01:26:43.150Z,3.57
2022-10-13T01:26:53.694Z,3.55
2022-10-13T01:27:04.149Z,3.55
2022-10-13T01:27:14.661Z,3.58
2022-10-13T01:27:25.175Z,3.57
2022-10-13T01:27:35.664Z,3.57
2022-10-13T01:27:46.162Z,3.58
2022-10-13T01:27:56.667Z,3.58
2022-10-13T01:28:07.175Z,3.60
2022-10-13T01:28:17.703Z,3.58
2022-10-13T01:28:28.217Z,3.60
2022-10-13T01:28:38.710Z,3.61
2022-10-13T01:28:49.271Z,3.58
2022-10-13T01:28:59.697Z,3.58
2022-10-13T01:29:10.191Z,3.61
2022-10-13T01:29:20.694Z,3.58
2022-10-13T01:29:31.202Z,3.61
2022-10-13T01:29:41.703Z,3.60
2022-10-13T01:29:52.214Z,3.58
2022-10-13T01:30:03.221Z,3.60
2022-10-13T01:30:13.738Z,3.58
2022-10-13T01:30:24.219Z,3.60
2022-10-13T01:30:34.722Z,3.58
2022-10-13T01:30:45.257Z,3.58
2022-10-13T01:30:55.733Z,3.58
2022-10-13T01:31:06.238Z,3.57
2022-10-13T01:31:16.746Z,3.57
2022-10-13T01:31:27.741Z,3.55
2022-10-13T01:31:38.246Z,3.57
2022-10-13T01:31:48.750Z,3.55
2022-10-13T01:31:59.261Z,3.55
2022-10-13T01:32:09.748Z,3.57
2022-10-13T01:32:20.744Z,3.54
2022-10-13T01:32:30.762Z,3.55
2022-10-13T01:32:41.260Z,3.54
2022-10-13T01:32:51.768Z,3.54
2022-10-13T01:33:02.276Z,3.54
2022-10-13T01:33:12.777Z,3.52
2022-10-13T01:33:23.276Z,3.54
2022-10-13T01:33:33.774Z,3.54
2022-10-13T01:33:44.280Z,3.52
2022-10-13T01:33:54.781Z,3.52
2022-10-13T01:34:05.280Z,3.54
2022-10-13T01:34:16.289Z,3.55
2022-10-13T01:34:26.786Z,3.54
2022-10-13T01:34:37.284Z,3.55
2022-10-13T01:34:47.794Z,3.55
2022-10-13T01:34:58.319Z,3.57
2022-10-13T01:35:08.795Z,3.57
2022-10-13T01:35:19.304Z,3.55
2022-10-13T01:35:29.799Z,3.55
2022-10-13T01:35:40.309Z,3.57
2022-10-13T01:35:50.812Z,3.57
2022-10-13T01:36:01.320Z,3.58
2022-10-13T01:36:12.319Z,3.58
2022-10-13T01:36:22.815Z,3.60
2022-10-13T01:36:33.319Z,3.60
2022-10-13T01:36:43.826Z,3.58
2022-10-13T01:36:54.348Z,3.58
2022-10-13T01:37:04.829Z,3.58
2022-10-13T01:37:15.333Z,3.60
2022-10-13T01:37:25.839Z,3.60
2022-10-13T01:37:36.340Z,3.60
2022-10-13T01:37:46.839Z,3.60
2022-10-13T01:37:57.351Z,3.60
2022-10-13T01:38:07.847Z,3.61
2022-10-13T01:38:18.349Z,3.58
2022-10-13T01:38:28.853Z,3.61
2022-10-13T01:38:39.357Z,3.60
2022-10-13T01:38:49.865Z,3.61
2022-10-13T01:39:00.362Z,3.61
2022-10-13T01:39:10.865Z,3.61
2022-10-13T01:39:21.397Z,3.60
2022-10-13T01:39:31.886Z,3.61
2022-10-13T01:39:42.378Z,3.60
2022-10-13T01:39:52.881Z,3.62
2022-10-13T01:40:03.385Z,3.61
2022-10-13T01:40:13.891Z,3.60
2022-10-13T01:40:24.412Z,3.61
2022-10-13T01:40:34.909Z,3.62
2022-10-13T01:40:45.407Z,3.65
2022-10-13T01:40:55.920Z,3.62
2022-10-13T01:41:06.412Z,3.66
2022-10-13T01:41:16.924Z,3.68
2022-10-13T01:41:27.429Z,3.70
2022-10-13T01:41:37.971Z,3.69
2022-10-13T01:41:48.433Z,3.72
2022-10-13T01:41:58.938Z,3.73
2022-10-13T01:42:11.147Z,3.73
2022-10-13T01:42:20.507Z,3.73
2022-10-13T01:42:30.451Z,3.75
2022-10-13T01:42:40.961Z,3.75
2022-10-13T01:42:51.461Z,3.75
2022-10-13T01:43:01.972Z,3.73
2022-10-13T01:43:12.461Z,3.75
2022-10-13T01:43:22.966Z,3.76
2022-10-13T01:43:33.467Z,3.76
2022-10-13T01:43:43.965Z,3.76
2022-10-13T01:43:54.978Z,3.75
2022-10-13T01:44:05.471Z,3.76
2022-10-13T01:44:15.976Z,3.78
2022-10-13T01:44:26.480Z,3.76
2022-10-13T01:44:36.990Z,3.76
2022-10-13T01:44:47.487Z,3.78
2022-10-13T01:44:57.991Z,3.78
2022-10-13T01:45:08.506Z,3.76
2022-10-13T01:45:18.994Z,3.76
2022-10-13T01:45:29.514Z,3.76
2022-10-13T01:45:40.008Z,3.76
2022-10-13T01:45:50.574Z,3.76
2022-10-13T01:46:01.019Z,3.76
2022-10-13T01:46:11.514Z,3.78
2022-10-13T01:46:22.022Z,3.78
2022-10-13T01:46:32.522Z,3.76
2022-10-13T01:46:43.024Z,3.75
2022-10-13T01:46:53.541Z,3.76
2022-10-13T01:47:04.042Z,3.75
2022-10-13T01:47:14.548Z,3.75
2022-10-13T01:47:25.049Z,3.76
2022-10-13T01:47:35.548Z,3.75
2022-10-13T01:47:46.051Z,3.76
2022-10-13T01:47:56.557Z,3.78
2022-10-13T01:48:07.060Z,3.76
2022-10-13T01:48:17.573Z,3.75
2022-10-13T01:48:28.076Z,3.75
2022-10-13T01:48:38.576Z,3.76
2022-10-13T01:48:49.075Z,3.75
2022-10-13T01:48:59.575Z,3.76
2022-10-13T01:49:10.084Z,3.76
2022-10-13T01:49:20.587Z,3.75
2022-10-13T01:49:31.092Z,3.76
2022-10-13T01:49:41.594Z,3.75
2022-10-13T01:49:52.105Z,3.75
2022-10-13T01:50:02.601Z,3.75
2022-10-13T01:50:13.111Z,3.73
2022-10-13T01:50:23.603Z,3.75
2022-10-13T01:50:34.116Z,3.73
2022-10-13T01:50:44.614Z,3.72
2022-10-13T01:50:55.178Z,3.73
2022-10-13T01:51:05.625Z,3.73
2022-10-13T01:51:16.121Z,3.73
2022-10-13T01:51:26.624Z,3.73
2022-10-13T01:51:37.136Z,3.72
2022-10-13T01:51:47.657Z,3.72
2022-10-13T01:51:58.139Z,3.70
2022-10-13T01:52:08.648Z,3.72
2022-10-13T01:52:19.448Z,3.70
2022-10-13T01:52:29.643Z,3.69
2022-10-13T01:52:40.147Z,3.70
2022-10-13T01:52:50.672Z,3.70
2022-10-13T01:53:01.157Z,3.69
2022-10-13T01:53:11.660Z,3.69
2022-10-13T01:53:22.162Z,3.68
2022-10-13T01:53:32.662Z,3.68
2022-10-13T01:53:43.166Z,3.66
2022-10-13T01:53:53.669Z,3.66
2022-10-13T01:54:04.171Z,3.66
2022-10-13T01:54:14.678Z,3.66
2022-10-13T01:54:25.182Z,3.66
2022-10-13T01:54:35.701Z,3.65
2022-10-13T01:54:46.187Z,3.62
2022-10-13T01:54:56.690Z,3.65
2022-10-13T01:55:07.201Z,3.61
2022-10-13T01:55:17.710Z,3.61
2022-10-13T01:55:28.200Z,3.61
2022-10-13T01:55:38.701Z,3.62
2022-10-13T01:55:49.208Z,3.61
2022-10-13T01:55:59.731Z,3.58
2022-10-13T01:56:10.214Z,3.57
2022-10-13T01:56:20.720Z,3.58
2022-10-13T01:56:31.229Z,3.57
2022-10-13T01:56:41.726Z,3.57
2022-10-13T01:56:52.230Z,3.58
2022-10-13T01:57:02.733Z,3.57
2022-10-13T01:57:13.236Z,3.54
2022-10-13T01:57:23.742Z,3.55
2022-10-13T01:57:34.254Z,3.52
2022-10-13T01:57:44.762Z,3.54
2022-10-13T01:57:55.257Z,3.52
2022-10-13T01:58:05.761Z,3.51
2022-10-13T01:58:16.265Z,3.52
2022-10-13T01:58:26.795Z,3.51
2022-10-13T01:58:37.265Z,3.51
2022-10-13T01:58:47.772Z,3.51
2022-10-13T01:58:58.277Z,3.51
2022-10-13T01:59:08.779Z,3.48
2022-10-13T01:59:19.284Z,3.48
2022-10-13T01:59:29.792Z,3.48
2022-10-13T01:59:40.300Z,3.50
2022-10-13T01:59:50.795Z,3.50
2022-10-13T02:00:01.305Z,3.45
2022-10-13T02:00:11.814Z,3.47
2022-10-13T02:00:22.422Z,3.48
2022-10-13T02:00:32.838Z,3.45
2022-10-13T02:00:43.339Z,3.48
2022-10-13T02:00:53.953Z,3.45
2022-10-13T02:01:04.382Z,3.48
2022-10-13T02:01:14.821Z,3.47
2022-10-13T02:01:25.326Z,3.45
2022-10-13T02:01:35.837Z,3.47
2022-10-13T02:01:46.332Z,3.45
2022-10-13T02:01:56.839Z,3.43
2022-10-13T02:02:07.347Z,3.45
2022-10-13T02:02:18.121Z,3.43
2022-10-13T02:02:28.348Z,3.45
2022-10-13T02:02:38.849Z,3.47
2022-10-13T02:02:49.357Z,3.45
2022-10-13T02:02:59.867Z,3.45
2022-10-13T02:03:10.363Z,3.45
2022-10-13T02:03:21.364Z,3.42
2022-10-13T02:03:31.909Z,3.42
2022-10-13T02:03:42.371Z,3.43
2022-10-13T02:03:52.878Z,3.43
2022-10-13T02:04:03.373Z,3.42
2022-10-13T02:04:13.888Z,3.43
2022-10-13T02:04:24.381Z,3.42
2022-10-13T02:04:34.886Z,3.39
2022-10-13T02:04:45.382Z,3.42
2022-10-13T02:04:55.889Z,3.42
2022-10-13T02:05:06.390Z,3.39
2022-10-13T02:05:16.892Z,3.36
2022-10-13T02:05:27.410Z,3.40
2022-10-13T02:05:37.927Z,3.39
2022-10-13T02:05:48.403Z,3.40
2022-10-13T02:05:58.905Z,3.39
2022-10-13T02:06:09.407Z,3.40
2022-10-13T02:06:19.908Z,3.40
2022-10-13T02:06:30.416Z,3.42
2022-10-13T02:06:40.919Z,3.43
2022-10-13T02:06:51.431Z,3.45
2022-10-13T02:07:01.933Z,3.45
2022-10-13T02:07:12.432Z,3.45
2022-10-13T02:07:22.942Z,3.45
2022-10-13T02:07:33.442Z,3.47
2022-10-13T02:07:43.949Z,3.45
2022-10-13T02:07:54.448Z,3.45
2022-10-13T02:08:04.966Z,3.45
2022-10-13T02:08:15.460Z,3.45
2022-10-13T02:08:25.975Z,3.45
2022-10-13T02:08:36.465Z,3.45
2022-10-13T02:08:47.013Z,3.48
2022-10-13T02:08:57.475Z,3.47
2022-10-13T02:09:07.986Z,3.45
2022-10-13T02:09:18.495Z,3.47
2022-10-13T02:09:29.000Z,3.43
2022-10-13T02:09:39.518Z,3.45
2022-10-13T02:09:50.009Z,3.45
2022-10-13T02:10:00.510Z,3.45
2022-10-13T02:10:11.013Z,3.43
2022-10-13T02:10:21.519Z,3.43
2022-10-13T02:10:32.026Z,3.45
2022-10-13T02:10:42.527Z,3.43
2022-10-13T02:10:53.041Z,3.45
2022-10-13T02:11:03.534Z,3.45
2022-10-13T02:11:14.046Z,3.45
2022-10-13T02:11:24.550Z,3.45
2022-10-13T02:11:35.054Z,3.45
2022-10-13T02:11:45.620Z,3.45
2022-10-13T02:11:56.059Z,3.45
2022-10-13T02:12:06.560Z,3.45
2022-10-13T02:12:17.591Z,3.45
2022-10-13T02:12:27.573Z,3.45
2022-10-13T02:12:38.080Z,3.47
2022-10-13T02:12:48.570Z,3.47
2022-10-13T02:12:59.144Z,3.45
2022-10-13T02:13:09.576Z,3.45
2022-10-13T02:13:20.089Z,3.45
2022-10-13T02:13:30.585Z,3.45
2022-10-13T02:13:41.092Z,3.43
2022-10-13T02:13:51.621Z,3.43
2022-10-13T02:14:02.099Z,3.43
2022-10-13T02:14:12.603Z,3.45
2022-10-13T02:14:23.102Z,3.45
2022-10-13T02:14:33.609Z,3.43
2022-10-13T02:14:44.118Z,3.45
2022-10-13T02:14:54.619Z,3.45
2022-10-13T02:15:05.134Z,3.45
2022-10-13T02:15:15.636Z,3.45
2022-10-13T02:15:26.137Z,3.43
2022-10-13T02:15:36.632Z,3.43
2022-10-13T02:15:47.141Z,3.45
2022-10-13T02:15:57.643Z,3.43
2022-10-13T02:16:08.146Z,3.45
2022-10-13T02:16:18.648Z,3.43
2022-10-13T02:16:29.155Z,3.45
2022-10-13T02:16:39.653Z,3.45
2022-10-13T02:16:50.169Z,3.43
2022-10-13T02:17:00.673Z,3.45
2022-10-13T02:17:11.177Z,3.43
2022-10-13T02:17:21.687Z,3.43
2022-10-13T02:17:32.190Z,3.43
2022-10-13T02:17:42.694Z,3.45
2022-10-13T02:17:53.196Z,3.42
2022-10-13T02:18:03.699Z,3.43
2022-10-13T02:18:14.218Z,3.43
2022-10-13T02:18:24.716Z,3.40
2022-10-13T02:18:35.218Z,3.43
2022-10-13T02:18:45.752Z,3.43
2022-10-13T02:18:56.240Z,3.43
2022-10-13T02:19:06.735Z,3.43
2022-10-13T02:19:17.241Z,3.42
2022-10-13T02:19:27.748Z,3.42
2022-10-13T02:19:38.250Z,3.43
2022-10-13T02:19:48.746Z,3.40